Airfield :
LOGIN :

Register | Disclaimer

   EN    FR    IT 

 










Legend :    VFR   Marginal VFR   IFR   Intensive IFR   Very Intensive IFR
Visi :
Ceiling :
>= 8 km
>= 3000ft
5 to 8 km
1000 to 3000 ft
1500m to 5 km
500 to 1000 ft
800 to 1500m
200 to 500 ft
< 800m
< 200 ft
Symbols :   Thunderstorms  Fog  Heavy snow  Heavy precipitations  Wind > 20 kt
SIGMETs :     Misc.  Thunderstorms  Icing  Turbulence  Mountain Waves  Volcanic Ashes







- Airport Elevation : 1197 ft
- IATA code : SPM


ETAD - Spangdahlem Ab

CURRENT METAR :
  • 181456Z AUTO 25009G16KT 9999 FEW065 29/11 A2998 RMK AO2 PK WND 24026/49 SLP128 T02860107 58005 $

EXPIRED METARs :
  • 181449Z AUTO 25013KT 9999 FEW065 29/12 A2997 RMK AO2 WSHFT 43 SLP124 $
  • 181356Z AUTO 22011KT 9999 CLR 28/14 A2998 RMK AO2 SLP128 T02810143 $
  • 181256Z AUTO 21013G17KT 9999 CLR 28/15 A2999 RMK AO2 SLP131 T02790145 $

TAF TAF ETAD
Valid from the 18 at 11:00 until the 19 at 17:00 UTC


181135Z 1811/1917 24009KT 9999 FEW080 QNH2994INS
BECMG 1823/1824 VRB06KT 9999 FEW050 QNH3006INS
BECMG 1905/1906 22009KT 9999 SCT050 QNH3003INS TX26/1815Z TN15/1903Z
No reported NOTAMs for that airfield.



MET'MAP, your aeronautical weather chart ! - Copyright ORBIFLY December 2007 - Disclaimer

ORBIFLY MET'MAP TEAM :

Programming & Development : Alexandra Zaïnal
Concept & Development : Baudouin d'Aumeries
Co-Development & Prog : Marc-Olivier Méhu
Technical & hardware support : Manuel Goepfert

Contact : metmap@orbifly.com




SOURCES & CREDITS :

   NOAA